Time;durP1;ratioP1;P1;durP2;ratioP2;P2;SDS_P1;SDS_P2;PMS_P1;PMS_P2;Temp;Humidity;BMP_temperature;BMP_pressure;BME280_temperature;BME280_humidity;BME280_pressure;Samples;Min_cycle;Max_cycle;Signal;HPM_P1;HPM_P2
2022/03/10 00:00:43;;;;;;;0.00;0.00;;;;;;;;;;1729832;28;20231;-74
2022/03/10 00:01:35;;;;;;;0.20;0.20;;;;;;;;;;1731581;28;20333;-74
2022/03/10 00:02:26;;;;;;;0.00;0.00;;;;;;;;;;1732145;28;20308;-74
2022/03/10 00:03:18;;;;;;;0.20;0.20;;;;;;;;;;1732016;28;20195;-74
2022/03/10 00:04:10;;;;;;;0.10;0.10;;;;;;;;;;1732396;28;20207;-74
2022/03/10 00:05:02;;;;;;;0.05;0.05;;;;;;;;;;1731584;28;20207;-73
2022/03/10 00:05:53;;;;;;;0.00;0.00;;;;;;;;;;1728835;28;20539;-74
2022/03/10 00:06:46;;;;;;;0.00;0.00;;;;;;;;;;1731207;28;20530;-75
2022/03/10 00:07:37;;;;;;;0.10;0.10;;;;;;;;;;1732493;28;20664;-74
2022/03/10 00:08:29;;;;;;;0.00;0.00;;;;;;;;;;1731532;28;20625;-74
2022/03/10 00:09:21;;;;;;;0.00;0.00;;;;;;;;;;1729417;28;20219;-74
2022/03/10 00:10:13;;;;;;;0.08;0.08;;;;;;;;;;1730348;28;20617;-74
2022/03/10 00:11:06;;;;;;;0.00;0.00;;;;;;;;;;1729026;28;20859;-74
2022/03/10 00:11:58;;;;;;;0.22;0.22;;;;;;;;;;1730393;28;20207;-74
2022/03/10 00:12:50;;;;;;;0.10;0.10;;;;;;;;;;1732032;28;20211;-74
2022/03/10 00:13:42;;;;;;;0.00;0.00;;;;;;;;;;1731646;28;20551;-74
2022/03/10 00:14:33;;;;;;;0.10;0.10;;;;;;;;;;1731825;28;20254;-74
2022/03/10 00:15:26;;;;;;;0.00;0.00;;;;;;;;;;1729584;28;20203;-74
2022/03/10 00:16:17;;;;;;;0.20;0.20;;;;;;;;;;1732092;28;20195;-74
2022/03/10 00:17:09;;;;;;;0.05;0.05;;;;;;;;;;1731490;28;20605;-73
2022/03/10 00:18:02;;;;;;;0.13;0.13;;;;;;;;;;1731348;28;20211;-73
2022/03/10 00:18:54;;;;;;;0.00;0.00;;;;;;;;;;1730839;28;20210;-73
2022/03/10 00:19:45;;;;;;;0.10;0.10;;;;;;;;;;1731700;28;20214;-73
2022/03/10 00:20:37;;;;;;;0.00;0.00;;;;;;;;;;1729919;28;20258;-73
2022/03/10 00:21:29;;;;;;;0.00;0.00;;;;;;;;;;1731831;28;20659;-73
2022/03/10 00:22:21;;;;;;;0.20;0.20;;;;;;;;;;1731944;28;20203;-73
2022/03/10 00:23:12;;;;;;;0.00;0.00;;;;;;;;;;1731437;28;20288;-73
2022/03/10 00:24:05;;;;;;;0.10;0.10;;;;;;;;;;1731884;28;20640;-73
2022/03/10 00:24:56;;;;;;;0.00;0.00;;;;;;;;;;1730638;28;20207;-74
2022/03/10 00:25:48;;;;;;;0.00;0.00;;;;;;;;;;1729837;28;20235;-73
2022/03/10 00:26:41;;;;;;;0.45;0.45;;;;;;;;;;1731621;28;20211;-73
2022/03/10 00:27:34;;;;;;;0.20;0.20;;;;;;;;;;1732038;28;20208;-73
2022/03/10 00:28:25;;;;;;;0.10;0.10;;;;;;;;;;1731545;28;20211;-73
2022/03/10 00:29:17;;;;;;;0.00;0.00;;;;;;;;;;1731843;28;20207;-73
2022/03/10 00:30:08;;;;;;;0.10;0.10;;;;;;;;;;1731153;28;20212;-73
2022/03/10 00:31:01;;;;;;;0.40;0.40;;;;;;;;;;1729427;28;20315;-74
2022/03/10 00:31:52;;;;;;;0.25;0.25;;;;;;;;;;1731239;28;20204;-73
2022/03/10 00:32:44;;;;;;;0.00;0.00;;;;;;;;;;1732538;28;20676;-73
2022/03/10 00:33:36;;;;;;;0.00;0.00;;;;;;;;;;1731008;28;20580;-73
2022/03/10 00:34:28;;;;;;;0.10;0.10;;;;;;;;;;1732468;28;20403;-73
2022/03/10 00:35:21;;;;;;;0.20;0.20;;;;;;;;;;1729304;28;20221;-73
2022/03/10 00:36:12;;;;;;;0.40;0.40;;;;;;;;;;1731924;28;20261;-73
2022/03/10 00:37:05;;;;;;;0.10;0.10;;;;;;;;;;1730645;28;20564;-73
2022/03/10 00:37:57;;;;;;;0.20;0.20;;;;;;;;;;1731017;28;20227;-74
2022/03/10 00:38:49;;;;;;;0.10;0.10;;;;;;;;;;1731556;28;20203;-73
2022/03/10 00:39:40;;;;;;;0.20;0.20;;;;;;;;;;1726040;28;20208;-73
2022/03/10 00:40:33;;;;;;;0.00;0.00;;;;;;;;;;1729502;28;20238;-73
2022/03/10 00:41:24;;;;;;;0.10;0.10;;;;;;;;;;1731036;28;20188;-73
2022/03/10 00:42:18;;;;;;;0.10;0.10;;;;;;;;;;1731650;28;20207;-73
2022/03/10 00:43:12;;;;;;;0.10;0.10;;;;;;;;;;1731215;28;20235;-74
2022/03/10 00:44:03;;;;;;;0.05;0.05;;;;;;;;;;1730931;28;20203;-73
2022/03/10 00:44:55;;;;;;;0.10;0.10;;;;;;;;;;1731349;28;20203;-74
2022/03/10 00:45:46;;;;;;;0.43;0.43;;;;;;;;;;1729972;28;20699;-73
2022/03/10 00:46:39;;;;;;;0.10;0.10;;;;;;;;;;1731352;28;20262;-73
2022/03/10 00:47:30;;;;;;;0.10;0.10;;;;;;;;;;1732104;28;20208;-73
2022/03/10 00:48:22;;;;;;;0.00;0.00;;;;;;;;;;1731121;28;20287;-73
2022/03/10 00:49:13;;;;;;;0.10;0.10;;;;;;;;;;1731328;28;20207;-73
2022/03/10 00:50:06;;;;;;;0.10;0.10;;;;;;;;;;1730479;28;20204;-73
2022/03/10 00:50:58;;;;;;;0.05;0.05;;;;;;;;;;1729988;28;20235;-73
2022/03/10 00:51:50;;;;;;;0.20;0.20;;;;;;;;;;1732159;28;20200;-74
2022/03/10 00:52:42;;;;;;;0.08;0.08;;;;;;;;;;1732101;28;20203;-74
2022/03/10 00:53:34;;;;;;;0.10;0.10;;;;;;;;;;1731332;28;20204;-74
2022/03/10 00:54:25;;;;;;;0.10;0.10;;;;;;;;;;1731804;28;20208;-73
2022/03/10 00:55:21;;;;;;;0.10;0.10;;;;;;;;;;1728843;28;20568;-74
2022/03/10 00:56:12;;;;;;;0.10;0.10;;;;;;;;;;1731002;28;20200;-74
2022/03/10 00:57:04;;;;;;;0.20;0.20;;;;;;;;;;1731763;28;20605;-73
2022/03/10 00:57:57;;;;;;;0.20;0.20;;;;;;;;;;1732949;28;20468;-74
2022/03/10 00:58:49;;;;;;;0.17;0.17;;;;;;;;;;1732960;28;20207;-73
2022/03/10 00:59:40;;;;;;;0.20;0.20;;;;;;;;;;1727944;28;20522;-73
2022/03/10 01:00:32;;;;;;;0.20;0.20;;;;;;;;;;1730269;28;20239;-73
2022/03/10 01:01:23;;;;;;;0.40;0.40;;;;;;;;;;1733039;28;20224;-73
2022/03/10 01:02:16;;;;;;;0.10;0.10;;;;;;;;;;1731802;28;20327;-74
2022/03/10 01:03:08;;;;;;;0.20;0.20;;;;;;;;;;1732404;28;20211;-74
2022/03/10 01:03:59;;;;;;;0.20;0.20;;;;;;;;;;1733202;28;20204;-74
2022/03/10 01:04:51;;;;;;;0.20;0.20;;;;;;;;;;1732824;28;20290;-73
2022/03/10 01:05:42;;;;;;;0.00;0.00;;;;;;;;;;1730727;28;20583;-74
2022/03/10 01:06:35;;;;;;;0.15;0.15;;;;;;;;;;1732950;28;20222;-73
2022/03/10 01:07:27;;;;;;;0.10;0.10;;;;;;;;;;1733054;28;20210;-73
2022/03/10 01:08:19;;;;;;;0.20;0.20;;;;;;;;;;1732151;28;20210;-73
2022/03/10 01:09:10;;;;;;;0.17;0.17;;;;;;;;;;1732201;28;20212;-73
2022/03/10 01:10:02;;;;;;;0.10;0.10;;;;;;;;;;1732484;28;20203;-73
2022/03/10 01:10:53;;;;;;;0.00;0.00;;;;;;;;;;1730804;28;20235;-73
2022/03/10 01:11:45;;;;;;;0.00;0.00;;;;;;;;;;1732481;28;20260;-74
2022/03/10 01:12:40;;;;;;;0.10;0.10;;;;;;;;;;1733425;28;20207;-73
2022/03/10 01:13:34;;;;;;;0.00;0.00;;;;;;;;;;1732493;28;20266;-73
2022/03/10 01:14:25;;;;;;;0.10;0.10;;;;;;;;;;1733079;28;20223;-74
2022/03/10 01:15:19;;;;;;;0.20;0.20;;;;;;;;;;1729398;28;20211;-74
2022/03/10 01:16:11;;;;;;;0.10;0.10;;;;;;;;;;1733125;28;20207;-74
2022/03/10 01:17:03;;;;;;;0.20;0.20;;;;;;;;;;1732869;28;20222;-73
2022/03/10 01:17:54;;;;;;;0.20;0.20;;;;;;;;;;1732832;28;20633;-74
2022/03/10 01:18:46;;;;;;;0.10;0.10;;;;;;;;;;1733045;28;20204;-73
2022/03/10 01:19:37;;;;;;;0.30;0.30;;;;;;;;;;1732535;28;20549;-73
2022/03/10 01:20:30;;;;;;;0.17;0.17;;;;;;;;;;1730701;28;20209;-74
2022/03/10 01:21:21;;;;;;;0.00;0.00;;;;;;;;;;1732008;28;20203;-74
2022/03/10 01:22:13;;;;;;;0.00;0.00;;;;;;;;;;1732629;28;20534;-73
2022/03/10 01:23:05;;;;;;;0.20;0.20;;;;;;;;;;1732916;28;20623;-74
2022/03/10 01:23:57;;;;;;;0.10;0.10;;;;;;;;;;1733230;28;20606;-74
2022/03/10 01:24:48;;;;;;;0.10;0.10;;;;;;;;;;1732907;28;20449;-74
2022/03/10 01:25:40;;;;;;;0.10;0.10;;;;;;;;;;1730421;28;20251;-74
2022/03/10 01:26:31;;;;;;;0.20;0.20;;;;;;;;;;1733080;28;20215;-74
2022/03/10 01:27:24;;;;;;;0.20;0.20;;;;;;;;;;1731997;28;20204;-74
2022/03/10 01:28:15;;;;;;;0.15;0.15;;;;;;;;;;1732554;28;20215;-74
2022/03/10 01:29:08;;;;;;;0.10;0.10;;;;;;;;;;1733110;28;20195;-73
2022/03/10 01:30:00;;;;;;;0.10;0.10;;;;;;;;;;1732078;28;20250;-74
2022/03/10 01:30:52;;;;;;;0.10;0.10;;;;;;;;;;1731163;28;21000;-74
2022/03/10 01:31:43;;;;;;;0.10;0.10;;;;;;;;;;1732527;28;20200;-74
2022/03/10 01:32:35;;;;;;;0.20;0.20;;;;;;;;;;1732796;28;20298;-74
2022/03/10 01:33:27;;;;;;;0.20;0.20;;;;;;;;;;1732043;28;20204;-74
2022/03/10 01:34:19;;;;;;;0.00;0.00;;;;;;;;;;1732529;28;20226;-74
2022/03/10 01:35:11;;;;;;;0.10;0.10;;;;;;;;;;1731826;28;21365;-74
2022/03/10 01:36:03;;;;;;;0.20;0.20;;;;;;;;;;1729450;28;20285;-73
2022/03/10 01:36:54;;;;;;;0.10;0.10;;;;;;;;;;1732509;28;20203;-73
2022/03/10 01:37:46;;;;;;;0.20;0.20;;;;;;;;;;1732607;28;20277;-74
2022/03/10 01:38:39;;;;;;;0.20;0.20;;;;;;;;;;1732215;28;20200;-73
2022/03/10 01:39:32;;;;;;;0.10;0.10;;;;;;;;;;1732742;28;20253;-73
2022/03/10 01:40:23;;;;;;;0.20;0.20;;;;;;;;;;1729436;28;20478;-74
2022/03/10 01:41:16;;;;;;;0.20;0.20;;;;;;;;;;1732793;28;20735;-74
2022/03/10 01:42:07;;;;;;;0.20;0.20;;;;;;;;;;1731772;28;20203;-74
2022/03/10 01:42:59;;;;;;;0.10;0.10;;;;;;;;;;1732398;28;20195;-74
2022/03/10 01:43:57;;;;;;;0.10;0.10;;;;;;;;;;1732679;28;20211;-74
2022/03/10 01:44:54;;;;;;;0.30;0.30;;;;;;;;;;1732334;28;20196;-74
2022/03/10 01:45:46;;;;;;;0.20;0.20;;;;;;;;;;1730650;28;20247;-74
2022/03/10 01:46:38;;;;;;;0.45;0.45;;;;;;;;;;1731486;28;20208;-74
2022/03/10 01:47:29;;;;;;;0.10;0.10;;;;;;;;;;1733024;28;20219;-74
2022/03/10 01:48:22;;;;;;;0.10;0.10;;;;;;;;;;1732218;28;20195;-73
2022/03/10 01:49:13;;;;;;;0.38;0.38;;;;;;;;;;1732687;28;20208;-73
2022/03/10 01:50:06;;;;;;;0.20;0.20;;;;;;;;;;1732239;28;20207;-74
2022/03/10 01:50:57;;;;;;;0.20;0.20;;;;;;;;;;1730843;28;20523;-74
2022/03/10 01:51:49;;;;;;;0.10;0.10;;;;;;;;;;1732255;28;20207;-74
2022/03/10 01:52:41;;;;;;;0.10;0.10;;;;;;;;;;1732062;28;20561;-73
2022/03/10 01:53:33;;;;;;;0.10;0.10;;;;;;;;;;1732123;28;20204;-73
2022/03/10 01:54:24;;;;;;;0.30;0.30;;;;;;;;;;1733180;28;20200;-74
2022/03/10 01:55:18;;;;;;;0.10;0.10;;;;;;;;;;1729865;28;20535;-73
2022/03/10 01:56:09;;;;;;;0.20;0.20;;;;;;;;;;1733245;28;20617;-73
2022/03/10 01:57:02;;;;;;;0.10;0.10;;;;;;;;;;1732355;28;20766;-73
2022/03/10 01:57:54;;;;;;;0.10;0.10;;;;;;;;;;1732701;28;20548;-73
2022/03/10 01:58:51;;;;;;;0.10;0.10;;;;;;;;;;1731064;28;20226;-73
2022/03/10 01:59:42;;;;;;;0.10;0.10;;;;;;;;;;1731627;28;20678;-74
2022/03/10 02:00:36;;;;;;;0.10;0.10;;;;;;;;;;1730569;28;20318;-74
2022/03/10 02:01:28;;;;;;;0.00;0.00;;;;;;;;;;1732515;28;20677;-74
2022/03/10 02:02:20;;;;;;;0.10;0.10;;;;;;;;;;1732783;28;20204;-74
2022/03/10 02:03:11;;;;;;;0.10;0.10;;;;;;;;;;1732609;28;20222;-74
2022/03/10 02:04:04;;;;;;;0.20;0.20;;;;;;;;;;1733432;28;20254;-74
2022/03/10 02:04:55;;;;;;;0.15;0.15;;;;;;;;;;1731803;28;20544;-74
2022/03/10 02:05:47;;;;;;;0.40;0.40;;;;;;;;;;1730169;28;20223;-74
2022/03/10 02:06:38;;;;;;;0.30;0.30;;;;;;;;;;1732325;28;20210;-75
2022/03/10 02:10:20;;;;;;;0.20;0.20;;;;;;;;;;1704036;29;20305;-74
2022/03/10 02:11:12;;;;;;;0.10;0.10;;;;;;;;;;1702639;28;20257;-74
2022/03/10 02:12:06;;;;;;;0.10;0.10;;;;;;;;;;1704023;29;20666;-74
2022/03/10 02:12:57;;;;;;;0.20;0.20;;;;;;;;;;1704942;29;20215;-75
2022/03/10 02:13:50;;;;;;;0.20;0.20;;;;;;;;;;1704853;29;20201;-75
2022/03/10 02:17:21;;;;;;;0.00;0.00;;;;;;;;;;1732584;28;20207;-74
2022/03/10 02:18:13;;;;;;;0.20;0.20;;;;;;;;;;1731392;28;20314;-74
2022/03/10 02:19:04;;;;;;;0.00;0.00;;;;;;;;;;1732668;28;20208;-74
2022/03/10 02:19:57;;;;;;;0.10;0.10;;;;;;;;;;1732138;28;20640;-74
2022/03/10 02:20:48;;;;;;;0.25;0.25;;;;;;;;;;1730451;28;20307;-75
2022/03/10 02:21:40;;;;;;;0.10;0.10;;;;;;;;;;1732463;28;20231;-74
2022/03/10 02:22:33;;;;;;;0.10;0.10;;;;;;;;;;1732758;28;20725;-74
2022/03/10 02:23:25;;;;;;;0.10;0.10;;;;;;;;;;1732316;28;20306;-74
2022/03/10 02:24:16;;;;;;;0.10;0.10;;;;;;;;;;1731817;28;20222;-74
2022/03/10 02:25:09;;;;;;;0.08;0.08;;;;;;;;;;1731988;28;20636;-74
2022/03/10 02:26:02;;;;;;;0.30;0.30;;;;;;;;;;1727785;28;20531;-74
2022/03/10 02:26:53;;;;;;;0.05;0.05;;;;;;;;;;1732489;28;20211;-74
2022/03/10 02:27:50;;;;;;;0.00;0.00;;;;;;;;;;1733227;28;20200;-74
2022/03/10 02:28:42;;;;;;;0.05;0.05;;;;;;;;;;1732183;28;20208;-74
2022/03/10 02:29:35;;;;;;;0.10;0.10;;;;;;;;;;1732318;28;20290;-74
2022/03/10 02:30:28;;;;;;;0.30;0.30;;;;;;;;;;1728450;28;20219;-75
2022/03/10 02:31:20;;;;;;;0.20;0.20;;;;;;;;;;1732315;28;20191;-74
2022/03/10 02:32:12;;;;;;;0.10;0.10;;;;;;;;;;1732707;28;20208;-73
2022/03/10 02:33:05;;;;;;;0.08;0.08;;;;;;;;;;1732745;28;20199;-73
2022/03/10 02:33:56;;;;;;;0.10;0.10;;;;;;;;;;1732779;28;20207;-73
2022/03/10 02:34:49;;;;;;;0.20;0.20;;;;;;;;;;1732483;28;20238;-74
2022/03/10 02:35:40;;;;;;;0.20;0.20;;;;;;;;;;1730472;28;20257;-73
2022/03/10 02:36:32;;;;;;;0.10;0.10;;;;;;;;;;1731856;28;20420;-74
2022/03/10 02:37:24;;;;;;;0.00;0.00;;;;;;;;;;1732540;28;20202;-74
2022/03/10 02:38:19;;;;;;;0.30;0.30;;;;;;;;;;1732401;28;20207;-74
2022/03/10 02:39:10;;;;;;;0.10;0.10;;;;;;;;;;1732628;28;20773;-74
2022/03/10 02:40:03;;;;;;;0.10;0.10;;;;;;;;;;1732402;28;20206;-74
2022/03/10 02:40:54;;;;;;;0.10;0.10;;;;;;;;;;1730991;28;20695;-74
2022/03/10 02:41:46;;;;;;;0.13;0.13;;;;;;;;;;1732252;28;20740;-73
2022/03/10 02:42:37;;;;;;;0.03;0.03;;;;;;;;;;1733053;28;20215;-73
2022/03/10 02:43:29;;;;;;;0.30;0.30;;;;;;;;;;1731809;28;20235;-74
2022/03/10 02:44:21;;;;;;;0.10;0.10;;;;;;;;;;1730263;28;20207;-73
2022/03/10 02:45:13;;;;;;;0.20;0.20;;;;;;;;;;1731178;28;20233;-73
2022/03/10 02:46:04;;;;;;;0.30;0.30;;;;;;;;;;1732235;28;20232;-74
2022/03/10 02:46:56;;;;;;;0.10;0.10;;;;;;;;;;1732072;28;20334;-73
2022/03/10 02:47:48;;;;;;;0.10;0.10;;;;;;;;;;1732969;28;20203;-73
2022/03/10 02:48:40;;;;;;;0.17;0.17;;;;;;;;;;1732381;28;20201;-73
2022/03/10 02:49:31;;;;;;;0.20;0.20;;;;;;;;;;1731606;28;20214;-74
2022/03/10 02:50:23;;;;;;;0.20;0.20;;;;;;;;;;1729938;28;20683;-74
2022/03/10 02:51:14;;;;;;;0.10;0.10;;;;;;;;;;1732638;28;20204;-74
2022/03/10 02:52:07;;;;;;;0.20;0.20;;;;;;;;;;1732443;28;20203;-74
2022/03/10 02:52:58;;;;;;;0.10;0.10;;;;;;;;;;1732197;28;20450;-74
2022/03/10 02:53:51;;;;;;;0.10;0.10;;;;;;;;;;1732603;28;20265;-74
2022/03/10 02:54:43;;;;;;;0.10;0.10;;;;;;;;;;1732759;28;20656;-74
2022/03/10 02:55:35;;;;;;;0.20;0.20;;;;;;;;;;1728623;28;20240;-74
2022/03/10 02:56:26;;;;;;;0.20;0.20;;;;;;;;;;1732028;28;20211;-74
2022/03/10 02:57:18;;;;;;;0.00;0.00;;;;;;;;;;1732401;28;20234;-74
2022/03/10 02:58:10;;;;;;;0.10;0.10;;;;;;;;;;1732153;28;20206;-74
2022/03/10 02:59:02;;;;;;;0.20;0.20;;;;;;;;;;1732201;28;20214;-74
2022/03/10 02:59:53;;;;;;;0.10;0.10;;;;;;;;;;1731529;28;20204;-74
2022/03/10 03:00:46;;;;;;;0.20;0.20;;;;;;;;;;1730382;28;20262;-74
2022/03/10 03:01:37;;;;;;;0.20;0.20;;;;;;;;;;1731583;28;20664;-74
2022/03/10 03:02:29;;;;;;;0.03;0.03;;;;;;;;;;1732008;28;20633;-74
2022/03/10 03:03:20;;;;;;;0.30;0.30;;;;;;;;;;1731846;28;20207;-74
2022/03/10 03:04:12;;;;;;;0.30;0.30;;;;;;;;;;1732303;28;20204;-74
2022/03/10 03:05:04;;;;;;;0.30;0.30;;;;;;;;;;1732016;28;20629;-74
2022/03/10 03:05:56;;;;;;;0.00;0.00;;;;;;;;;;1730231;28;20665;-75
2022/03/10 03:06:47;;;;;;;0.20;0.20;;;;;;;;;;1731812;28;20203;-74
2022/03/10 03:07:40;;;;;;;0.00;0.00;;;;;;;;;;1732170;28;20670;-74
2022/03/10 03:08:31;;;;;;;0.30;0.30;;;;;;;;;;1730940;28;20211;-74
2022/03/10 03:09:25;;;;;;;0.00;0.00;;;;;;;;;;1732306;28;20214;-74
2022/03/10 03:10:17;;;;;;;0.10;0.10;;;;;;;;;;1728907;28;20783;-73
2022/03/10 03:11:10;;;;;;;0.17;0.17;;;;;;;;;;1732713;28;20204;-74
2022/03/10 03:12:02;;;;;;;0.15;0.15;;;;;;;;;;1731890;28;20210;-74
2022/03/10 03:12:54;;;;;;;0.20;0.20;;;;;;;;;;1732574;28;20203;-74
2022/03/10 03:13:45;;;;;;;0.20;0.20;;;;;;;;;;1731920;28;20620;-74
2022/03/10 03:14:37;;;;;;;0.00;0.00;;;;;;;;;;1731150;28;20207;-74
2022/03/10 03:15:28;;;;;;;0.20;0.20;;;;;;;;;;1729875;28;20211;-74
2022/03/10 03:16:21;;;;;;;0.10;0.10;;;;;;;;;;1732089;28;20207;-74
2022/03/10 03:17:12;;;;;;;0.13;0.13;;;;;;;;;;1732405;28;20211;-74
2022/03/10 03:18:04;;;;;;;0.10;0.10;;;;;;;;;;1732079;28;20207;-74
2022/03/10 03:18:55;;;;;;;0.20;0.20;;;;;;;;;;1731175;28;20543;-73
2022/03/10 03:19:47;;;;;;;0.10;0.10;;;;;;;;;;1731178;28;20286;-74
2022/03/10 03:20:39;;;;;;;0.10;0.10;;;;;;;;;;1729611;28;20503;-74
2022/03/10 03:21:31;;;;;;;0.25;0.25;;;;;;;;;;1731769;28;20199;-74
2022/03/10 03:22:22;;;;;;;0.10;0.10;;;;;;;;;;1732298;28;20613;-74
2022/03/10 03:23:14;;;;;;;0.20;0.20;;;;;;;;;;1732363;28;20905;-74
2022/03/10 03:24:06;;;;;;;0.25;0.25;;;;;;;;;;1732530;28;20200;-74
2022/03/10 03:24:59;;;;;;;0.20;0.20;;;;;;;;;;1731478;28;20281;-73
2022/03/10 03:25:50;;;;;;;0.20;0.20;;;;;;;;;;1730351;28;20258;-74
2022/03/10 03:26:43;;;;;;;0.10;0.10;;;;;;;;;;1731771;28;20552;-74
2022/03/10 03:27:34;;;;;;;0.52;0.52;;;;;;;;;;1731708;28;20214;-74
2022/03/10 03:28:26;;;;;;;0.30;0.30;;;;;;;;;;1731787;28;20291;-74
2022/03/10 03:29:17;;;;;;;0.20;0.20;;;;;;;;;;1732217;28;20261;-74
2022/03/10 03:30:11;;;;;;;0.10;0.10;;;;;;;;;;1731362;28;20657;-74
2022/03/10 03:31:03;;;;;;;0.40;0.40;;;;;;;;;;1730366;28;20239;-74
2022/03/10 03:31:56;;;;;;;0.10;0.10;;;;;;;;;;1731823;28;20195;-74
2022/03/10 03:32:47;;;;;;;0.20;0.20;;;;;;;;;;1732394;28;20640;-74
2022/03/10 03:33:39;;;;;;;0.10;0.10;;;;;;;;;;1731120;28;20298;-74
2022/03/10 03:34:31;;;;;;;0.10;0.10;;;;;;;;;;1732428;28;20211;-74
2022/03/10 03:35:25;;;;;;;0.15;0.15;;;;;;;;;;1729318;28;20688;-74
2022/03/10 03:36:16;;;;;;;0.10;0.10;;;;;;;;;;1732193;28;20233;-74
2022/03/10 03:37:08;;;;;;;0.13;0.13;;;;;;;;;;1732045;28;20234;-74
2022/03/10 03:37:59;;;;;;;0.10;0.10;;;;;;;;;;1732054;28;20580;-74
2022/03/10 03:38:51;;;;;;;0.30;0.30;;;;;;;;;;1732164;28;20303;-74
2022/03/10 03:39:42;;;;;;;0.38;0.38;;;;;;;;;;1725776;28;20568;-74
2022/03/10 03:40:36;;;;;;;0.20;0.20;;;;;;;;;;1729552;28;20239;-75
2022/03/10 03:41:27;;;;;;;0.10;0.10;;;;;;;;;;1731498;28;20596;-74
2022/03/10 03:42:20;;;;;;;0.10;0.10;;;;;;;;;;1732011;28;20234;-74
2022/03/10 03:43:11;;;;;;;0.20;0.20;;;;;;;;;;1731768;28;20212;-74
2022/03/10 03:44:04;;;;;;;0.10;0.10;;;;;;;;;;1732135;28;20616;-74
2022/03/10 03:44:55;;;;;;;0.38;0.38;;;;;;;;;;1731744;28;20210;-73
2022/03/10 03:45:47;;;;;;;0.10;0.10;;;;;;;;;;1729727;28;20334;-74
2022/03/10 03:46:39;;;;;;;0.17;0.17;;;;;;;;;;1730753;28;20208;-73
2022/03/10 03:47:31;;;;;;;0.45;0.45;;;;;;;;;;1732058;28;20597;-74
2022/03/10 03:48:23;;;;;;;0.10;0.10;;;;;;;;;;1731668;28;20207;-74
2022/03/10 03:49:16;;;;;;;0.20;0.20;;;;;;;;;;1731912;28;20207;-74
2022/03/10 03:50:07;;;;;;;0.22;0.22;;;;;;;;;;1731298;28;20272;-74
2022/03/10 03:50:59;;;;;;;0.30;0.30;;;;;;;;;;1730136;28;20266;-73
2022/03/10 03:51:51;;;;;;;0.30;0.30;;;;;;;;;;1731123;28;20471;-74
2022/03/10 03:52:43;;;;;;;0.20;0.20;;;;;;;;;;1731578;28;20636;-74
2022/03/10 03:53:35;;;;;;;0.30;0.30;;;;;;;;;;1731325;28;20210;-74
2022/03/10 03:54:27;;;;;;;0.20;0.20;;;;;;;;;;1732750;28;20237;-74
2022/03/10 03:55:18;;;;;;;0.17;0.17;;;;;;;;;;1729506;28;20636;-74
2022/03/10 03:56:12;;;;;;;0.30;0.30;;;;;;;;;;1732306;28;20549;-74
2022/03/10 03:57:03;;;;;;;0.30;0.30;;;;;;;;;;1731063;28;20627;-74
2022/03/10 03:57:55;;;;;;;0.10;0.10;;;;;;;;;;1731782;28;20228;-74
2022/03/10 03:58:46;;;;;;;0.10;0.10;;;;;;;;;;1731296;28;20196;-74
2022/03/10 03:59:40;;;;;;;0.10;0.10;;;;;;;;;;1731422;28;20219;-74
2022/03/10 04:00:31;;;;;;;0.10;0.10;;;;;;;;;;1729839;28;20574;-74
2022/03/10 04:01:23;;;;;;;0.17;0.17;;;;;;;;;;1732109;28;20207;-74
2022/03/10 04:02:15;;;;;;;0.22;0.22;;;;;;;;;;1731560;28;20285;-74
2022/03/10 04:03:08;;;;;;;0.20;0.20;;;;;;;;;;1731935;28;20686;-74
2022/03/10 04:03:59;;;;;;;0.05;0.05;;;;;;;;;;1731923;28;20210;-74
2022/03/10 04:04:52;;;;;;;0.20;0.20;;;;;;;;;;1731594;28;20686;-74
2022/03/10 04:05:44;;;;;;;0.20;0.20;;;;;;;;;;1729681;28;20254;-74
2022/03/10 04:06:36;;;;;;;0.20;0.20;;;;;;;;;;1731733;28;20221;-74
2022/03/10 04:07:27;;;;;;;0.13;0.13;;;;;;;;;;1731490;28;20210;-74
2022/03/10 04:08:21;;;;;;;0.10;0.10;;;;;;;;;;1731004;28;20207;-73
2022/03/10 04:09:12;;;;;;;0.30;0.30;;;;;;;;;;1731942;28;20222;-74
2022/03/10 04:10:04;;;;;;;0.10;0.10;;;;;;;;;;1731369;28;20196;-74
2022/03/10 04:10:56;;;;;;;0.10;0.10;;;;;;;;;;1729857;28;20358;-75
2022/03/10 04:11:49;;;;;;;0.20;0.20;;;;;;;;;;1730843;28;20664;-74
2022/03/10 04:12:41;;;;;;;0.00;0.00;;;;;;;;;;1732151;28;20556;-74
2022/03/10 04:13:32;;;;;;;0.20;0.20;;;;;;;;;;1731167;28;20218;-73
2022/03/10 04:14:25;;;;;;;0.00;0.00;;;;;;;;;;1731959;28;20221;-74
2022/03/10 04:15:17;;;;;;;0.10;0.10;;;;;;;;;;1729294;28;20262;-74
2022/03/10 04:16:09;;;;;;;0.00;0.00;;;;;;;;;;1732302;28;20310;-74
2022/03/10 04:17:01;;;;;;;0.20;0.20;;;;;;;;;;1731617;28;20207;-74
2022/03/10 04:17:53;;;;;;;0.10;0.10;;;;;;;;;;1731203;28;20873;-74
2022/03/10 04:18:44;;;;;;;0.10;0.10;;;;;;;;;;1731301;28;20271;-74
2022/03/10 04:19:36;;;;;;;0.05;0.05;;;;;;;;;;1731818;28;20200;-74
2022/03/10 04:20:28;;;;;;;0.15;0.15;;;;;;;;;;1729687;28;20272;-74
2022/03/10 04:21:20;;;;;;;0.20;0.20;;;;;;;;;;1731888;28;20207;-74
2022/03/10 04:22:11;;;;;;;0.10;0.10;;;;;;;;;;1731894;28;20600;-74
2022/03/10 04:23:04;;;;;;;0.25;0.25;;;;;;;;;;1731810;28;20207;-74
2022/03/10 04:23:55;;;;;;;0.30;0.30;;;;;;;;;;1723883;28;20592;-73
2022/03/10 04:24:48;;;;;;;0.10;0.10;;;;;;;;;;1724289;28;20207;-73
2022/03/10 04:25:39;;;;;;;0.20;0.20;;;;;;;;;;1722856;28;20262;-74
2022/03/10 04:26:32;;;;;;;0.43;0.43;;;;;;;;;;1725136;28;20225;-74
2022/03/10 04:27:24;;;;;;;0.10;0.10;;;;;;;;;;1725105;28;20306;-74
2022/03/10 04:28:16;;;;;;;0.10;0.10;;;;;;;;;;1724982;28;20226;-74
2022/03/10 04:29:08;;;;;;;0.20;0.20;;;;;;;;;;1724673;28;20384;-74
2022/03/10 04:30:00;;;;;;;0.22;0.22;;;;;;;;;;1724262;28;20208;-75
2022/03/10 04:30:51;;;;;;;0.10;0.10;;;;;;;;;;1722582;28;20258;-74
2022/03/10 04:31:43;;;;;;;0.00;0.00;;;;;;;;;;1726263;28;20265;-74
2022/03/10 04:32:42;;;;;;;0.20;0.20;;;;;;;;;;1726733;28;20208;-74
2022/03/10 04:33:34;;;;;;;0.10;0.10;;;;;;;;;;1726015;28;20208;-74
2022/03/10 04:34:25;;;;;;;0.10;0.10;;;;;;;;;;1726410;28;20577;-74
2022/03/10 04:35:21;;;;;;;0.10;0.10;;;;;;;;;;1723494;28;20206;-74
2022/03/10 04:36:13;;;;;;;0.10;0.10;;;;;;;;;;1726493;28;20207;-75
2022/03/10 04:37:05;;;;;;;0.10;0.10;;;;;;;;;;1725130;28;20209;-74
2022/03/10 04:37:57;;;;;;;0.30;0.30;;;;;;;;;;1726556;28;20628;-74
2022/03/10 04:38:48;;;;;;;0.20;0.20;;;;;;;;;;1726858;28;20249;-74
2022/03/10 04:39:40;;;;;;;0.20;0.20;;;;;;;;;;1725703;28;20200;-74
2022/03/10 04:40:32;;;;;;;0.10;0.10;;;;;;;;;;1723900;28;20250;-74
2022/03/10 04:41:24;;;;;;;0.20;0.20;;;;;;;;;;1725504;28;20234;-74
2022/03/10 04:42:15;;;;;;;0.30;0.30;;;;;;;;;;1726420;28;20227;-74
2022/03/10 04:43:09;;;;;;;0.20;0.20;;;;;;;;;;1725584;28;20303;-74
2022/03/10 04:44:00;;;;;;;0.10;0.10;;;;;;;;;;1726186;28;20589;-74
2022/03/10 04:44:52;;;;;;;0.32;0.32;;;;;;;;;;1726433;28;20670;-74
2022/03/10 04:45:44;;;;;;;0.20;0.20;;;;;;;;;;1724048;28;20247;-74
2022/03/10 04:46:36;;;;;;;0.20;0.20;;;;;;;;;;1726341;28;20207;-74
2022/03/10 04:47:27;;;;;;;0.20;0.20;;;;;;;;;;1725581;28;20620;-74
2022/03/10 04:48:20;;;;;;;0.20;0.20;;;;;;;;;;1725859;28;20235;-74
2022/03/10 04:49:11;;;;;;;0.20;0.20;;;;;;;;;;1725742;28;20219;-74
2022/03/10 04:50:03;;;;;;;0.25;0.25;;;;;;;;;;1725370;28;20217;-74
2022/03/10 04:50:54;;;;;;;0.10;0.10;;;;;;;;;;1724163;28;20577;-75
2022/03/10 04:51:46;;;;;;;0.40;0.40;;;;;;;;;;1726288;28;20197;-74
2022/03/10 04:52:37;;;;;;;0.10;0.10;;;;;;;;;;1726889;28;20599;-74
2022/03/10 04:53:30;;;;;;;0.28;0.28;;;;;;;;;;1726211;28;20298;-74
2022/03/10 04:54:21;;;;;;;0.30;0.30;;;;;;;;;;1727140;28;20225;-74
2022/03/10 04:55:14;;;;;;;0.20;0.20;;;;;;;;;;1723794;28;20211;-75
2022/03/10 04:56:05;;;;;;;0.10;0.10;;;;;;;;;;1725484;28;20297;-74
2022/03/10 04:56:57;;;;;;;0.10;0.10;;;;;;;;;;1725953;28;20701;-74
2022/03/10 04:57:48;;;;;;;0.20;0.20;;;;;;;;;;1726732;28;20637;-74
2022/03/10 04:58:42;;;;;;;0.10;0.10;;;;;;;;;;1725761;28;20306;-74
2022/03/10 04:59:33;;;;;;;0.15;0.15;;;;;;;;;;1726088;28;20615;-74
2022/03/10 05:00:28;;;;;;;0.10;0.10;;;;;;;;;;1723072;28;20554;-73
2022/03/10 05:01:19;;;;;;;0.10;0.10;;;;;;;;;;1725941;28;20631;-74
2022/03/10 05:02:11;;;;;;;0.20;0.20;;;;;;;;;;1725550;28;20222;-74
2022/03/10 05:03:04;;;;;;;0.00;0.00;;;;;;;;;;1726617;28;20510;-74
2022/03/10 05:03:55;;;;;;;0.20;0.20;;;;;;;;;;1726322;28;20216;-73
2022/03/10 05:04:47;;;;;;;0.17;0.17;;;;;;;;;;1726103;28;20203;-73
2022/03/10 05:05:38;;;;;;;0.10;0.10;;;;;;;;;;1724259;28;20226;-74
2022/03/10 05:06:30;;;;;;;0.20;0.20;;;;;;;;;;1725989;28;20240;-74
2022/03/10 05:07:21;;;;;;;0.20;0.20;;;;;;;;;;1726392;28;20203;-74
2022/03/10 05:08:14;;;;;;;0.10;0.10;;;;;;;;;;1725233;28;20207;-74
2022/03/10 05:09:05;;;;;;;0.20;0.20;;;;;;;;;;1725670;28;20657;-73
2022/03/10 05:09:58;;;;;;;0.20;0.20;;;;;;;;;;1725868;28;20622;-74
2022/03/10 05:10:49;;;;;;;0.20;0.20;;;;;;;;;;1724152;28;20236;-74
2022/03/10 05:11:41;;;;;;;0.10;0.10;;;;;;;;;;1726127;28;20200;-74
2022/03/10 05:12:32;;;;;;;0.00;0.00;;;;;;;;;;1726277;28;20214;-74
2022/03/10 05:13:24;;;;;;;0.20;0.20;;;;;;;;;;1725980;28;20244;-73
2022/03/10 05:14:17;;;;;;;0.25;0.25;;;;;;;;;;1725840;28;20688;-73
2022/03/10 05:15:09;;;;;;;0.20;0.20;;;;;;;;;;1725068;28;20212;-73
2022/03/10 05:16:00;;;;;;;0.10;0.10;;;;;;;;;;1724433;28;20263;-74
2022/03/10 05:16:53;;;;;;;0.10;0.10;;;;;;;;;;1725709;28;20214;-74
2022/03/10 05:17:44;;;;;;;0.20;0.20;;;;;;;;;;1726757;28;20223;-73